createdAt,value
2022-09-05T00:01:40.111Z,1.00
2022-09-05T00:04:24.472Z,3.25
2022-09-05T00:07:06.339Z,0.00
2022-09-05T00:09:39.130Z,0.00
2022-09-05T00:12:11.243Z,0.00
2022-09-05T00:15:16.684Z,2.50
2022-09-05T00:20:28.618Z,0.00
2022-09-05T00:24:22.898Z,0.00
2022-09-05T00:24:35.150Z,0.00
2022-09-05T00:26:38.191Z,0.25
2022-09-05T00:29:30.282Z,2.00
2022-09-05T00:32:26.402Z,2.50
2022-09-05T00:35:04.805Z,0.75
2022-09-05T00:37:37.420Z,1.25
2022-09-05T00:40:42.740Z,1.50
2022-09-05T00:43:16.591Z,1.75
2022-09-05T00:45:49.462Z,0.00
2022-09-05T00:48:28.538Z,0.75
2022-09-05T00:51:15.550Z,1.00
2022-09-05T00:53:53.970Z,1.00
2022-09-05T00:56:50.372Z,0.00
2022-09-05T00:59:38.147Z,1.25
2022-09-05T01:02:23.632Z,1.00
2022-09-05T01:05:28.687Z,1.00
2022-09-05T01:08:17.561Z,0.00
2022-09-05T01:11:05.545Z,1.00
2022-09-05T01:13:52.932Z,1.25
2022-09-05T01:16:46.139Z,1.00
2022-09-05T01:19:27.987Z,5.00
2022-09-05T01:22:16.033Z,1.00
2022-09-05T01:24:48.568Z,1.50
2022-09-05T01:28:25.250Z,0.75
2022-09-05T01:30:34.438Z,0.00
2022-09-05T01:33:18.627Z,1.50
2022-09-05T01:36:11.309Z,1.00
2022-09-05T01:38:41.015Z,1.75
2022-09-05T01:41:24.728Z,1.00
2022-09-05T01:44:03.482Z,0.25
2022-09-05T01:46:45.460Z,0.75
2022-09-05T01:49:35.196Z,1.00
2022-09-05T01:52:28.411Z,3.00
2022-09-05T01:54:57.788Z,2.50
2022-09-05T01:57:37.552Z,2.75
2022-09-05T02:00:15.858Z,2.50
2022-09-05T02:03:17.514Z,1.50
2022-09-05T02:06:04.886Z,1.25
2022-09-05T02:08:45.062Z,2.00
2022-09-05T02:11:15.098Z,2.00
2022-09-05T02:14:12.355Z,2.25
2022-09-05T02:16:56.351Z,2.25
2022-09-05T02:19:30.761Z,2.50
2022-09-05T02:22:11.572Z,2.00
2022-09-05T02:24:46.253Z,1.25
2022-09-05T02:28:02.173Z,2.25
2022-09-05T02:30:12.651Z,2.00
2022-09-05T02:33:08.709Z,2.00
2022-09-05T02:35:47.602Z,2.00
2022-09-05T02:43:42.389Z,2.00
2022-09-05T02:45:06.889Z,2.75
2022-09-05T02:45:20.072Z,2.00
2022-09-05T02:47:37.895Z,2.25
2022-09-05T02:57:25.779Z,1.75
2022-09-05T02:57:27.275Z,1.00
2022-09-05T02:57:39.466Z,1.00
2022-09-05T02:59:10.088Z,2.00
2022-09-05T03:01:52.597Z,1.00
2022-09-05T03:04:37.181Z,3.00
2022-09-05T03:07:16.686Z,0.75
2022-09-05T03:09:49.567Z,1.00
2022-09-05T03:12:37.388Z,2.25
2022-09-05T03:15:25.496Z,2.50
2022-09-05T03:18:20.599Z,3.25
2022-09-05T03:21:08.850Z,1.75
2022-09-05T03:23:57.855Z,2.25
2022-09-05T03:26:27.248Z,1.50
2022-09-05T03:29:11.870Z,1.50
2022-09-05T03:31:59.267Z,1.00
2022-09-05T03:34:34.563Z,1.00
2022-09-05T03:37:12.998Z,2.00
2022-09-05T03:39:48.597Z,1.25
2022-09-05T03:42:27.857Z,2.75
2022-09-05T03:45:36.649Z,2.00
2022-09-05T03:48:29.343Z,2.00
2022-09-05T03:57:08.043Z,0.75
2022-09-05T03:57:13.962Z,1.00
2022-09-05T03:57:32.355Z,2.00
2022-09-05T04:00:09.055Z,2.75
2022-09-05T04:08:08.589Z,0.75
2022-09-05T04:08:20.390Z,2.00
2022-09-05T04:08:45.213Z,0.00
2022-09-05T04:11:18.120Z,3.00
2022-09-05T04:13:54.393Z,2.00
2022-09-05T04:16:28.897Z,1.00
2022-09-05T04:19:11.738Z,0.00
2022-09-05T04:21:48.742Z,2.00
2022-09-05T04:24:35.165Z,0.00
2022-09-05T04:27:28.136Z,0.00
2022-09-05T04:30:11.680Z,3.00
2022-09-05T04:32:55.851Z,1.00
2022-09-05T04:35:25.278Z,2.00
2022-09-05T04:38:10.460Z,2.00
2022-09-05T04:40:47.316Z,1.00
2022-09-05T04:43:19.976Z,2.00
2022-09-05T04:46:07.272Z,0.75
2022-09-05T04:48:39.588Z,3.25
2022-09-05T04:51:26.179Z,2.00
2022-09-05T04:54:19.201Z,1.00
2022-09-05T04:56:53.018Z,1.00
2022-09-05T05:02:41.883Z,2.50
2022-09-05T05:06:06.005Z,2.00
2022-09-05T05:06:14.283Z,1.25
2022-09-05T05:08:41.225Z,2.50
2022-09-05T05:17:56.164Z,2.00
2022-09-05T05:18:03.010Z,2.00
2022-09-05T05:18:06.546Z,2.50
2022-09-05T05:20:41.878Z,1.00
2022-09-05T05:23:16.750Z,1.25
2022-09-05T05:25:46.105Z,1.00
2022-09-05T05:28:24.194Z,2.00
2022-09-05T05:31:01.826Z,1.00
2022-09-05T05:33:37.271Z,2.25
2022-09-05T05:36:09.051Z,2.00
2022-09-05T05:38:52.764Z,4.00
2022-09-05T05:41:25.346Z,3.50
2022-09-05T05:43:56.049Z,2.00
2022-09-05T05:46:31.903Z,1.25
2022-09-05T05:49:20.613Z,2.00
2022-09-05T05:52:02.479Z,1.00
2022-09-05T05:54:51.184Z,2.00
2022-09-05T05:57:53.445Z,2.00
2022-09-05T06:00:31.188Z,1.00
2022-09-05T06:03:26.680Z,2.00
2022-09-05T06:06:06.084Z,2.00
2022-09-05T06:14:11.297Z,1.50
2022-09-05T06:15:06.829Z,1.00
2022-09-05T06:15:10.520Z,2.00
2022-09-05T06:17:59.705Z,2.00
2022-09-05T06:22:05.474Z,1.75
2022-09-05T06:23:55.866Z,2.50
2022-09-05T06:26:31.679Z,2.25
2022-09-05T06:29:19.183Z,1.50
2022-09-05T06:32:09.303Z,1.00
2022-09-05T06:35:01.795Z,1.50
2022-09-05T06:37:48.564Z,1.00
2022-09-05T06:40:18.361Z,2.75
2022-09-05T06:42:54.566Z,1.00
2022-09-05T06:45:59.053Z,1.00
2022-09-05T06:48:56.126Z,2.00
2022-09-05T06:51:45.065Z,2.00
2022-09-05T06:54:49.059Z,2.25
2022-09-05T06:57:33.123Z,1.25
2022-09-05T07:00:06.215Z,2.00
2022-09-05T07:03:00.072Z,1.50
2022-09-05T07:05:39.826Z,1.25
2022-09-05T07:08:34.776Z,2.00
2022-09-05T07:11:16.140Z,0.00
2022-09-05T07:13:58.783Z,3.00
2022-09-05T07:16:39.091Z,3.00
2022-09-05T07:19:15.513Z,3.00
2022-09-05T07:21:45.001Z,1.00
2022-09-05T07:24:54.337Z,4.00
2022-09-05T07:27:46.861Z,2.00
2022-09-05T07:30:30.332Z,1.00
2022-09-05T07:33:00.583Z,3.00
2022-09-05T07:35:39.776Z,1.00
2022-09-05T07:38:38.226Z,0.75
2022-09-05T07:41:23.678Z,1.25
2022-09-05T07:43:59.171Z,1.25
2022-09-05T07:46:32.414Z,1.50
2022-09-05T07:49:07.942Z,2.00
2022-09-05T07:56:36.302Z,2.75
2022-09-05T07:56:58.768Z,1.00
2022-09-05T07:57:51.105Z,2.25
2022-09-05T08:00:26.600Z,1.00
2022-09-05T08:03:05.395Z,1.00
2022-09-05T08:05:46.470Z,3.00
2022-09-05T08:08:25.666Z,2.75
2022-09-05T08:11:25.359Z,1.50
2022-09-05T08:14:40.543Z,1.00
2022-09-05T08:16:49.475Z,1.00
2022-09-05T08:19:37.548Z,2.50
2022-09-05T08:22:08.111Z,1.00
2022-09-05T08:24:48.506Z,1.00
2022-09-05T08:27:20.094Z,0.50
2022-09-05T08:30:25.551Z,1.25
2022-09-05T08:33:10.605Z,2.00
2022-09-05T08:35:47.310Z,1.00
2022-09-05T08:38:19.534Z,1.00
2022-09-05T08:40:52.435Z,3.75
2022-09-05T08:46:37.303Z,2.00
2022-09-05T08:46:42.972Z,1.25
2022-09-05T08:49:40.324Z,2.00
2022-09-05T08:52:31.434Z,0.00
2022-09-05T08:55:06.544Z,2.00
2022-09-05T08:57:55.443Z,2.50
2022-09-05T09:00:27.483Z,0.00
2022-09-05T09:03:04.875Z,2.00
2022-09-05T09:06:12.815Z,1.25
2022-09-05T09:08:31.191Z,2.00
2022-09-05T09:11:19.007Z,1.00
2022-09-05T09:14:04.276Z,4.00
2022-09-05T09:16:43.596Z,1.50
2022-09-05T09:19:13.105Z,2.00
2022-09-05T09:21:48.260Z,2.00
2022-09-05T09:24:20.692Z,2.50
2022-09-05T09:26:58.215Z,1.00
2022-09-05T09:29:29.073Z,3.00
2022-09-05T09:32:03.263Z,2.75
2022-09-05T09:34:36.824Z,1.25
2022-09-05T09:37:50.946Z,1.25
2022-09-05T09:40:40.404Z,2.25
2022-09-05T09:43:34.479Z,1.50
2022-09-05T09:46:16.747Z,1.25
2022-09-05T09:48:50.934Z,2.25
2022-09-05T09:51:27.945Z,1.50
2022-09-05T09:54:04.532Z,2.00
2022-09-05T09:56:34.199Z,4.25
2022-09-05T09:59:06.555Z,4.75
2022-09-05T10:01:54.727Z,3.25
2022-09-05T10:10:33.405Z,4.25
2022-09-05T10:10:54.672Z,6.00
2022-09-05T10:11:17.891Z,6.00
2022-09-05T10:13:57.019Z,2.00
2022-09-05T10:16:46.087Z,3.50
2022-09-05T10:19:15.374Z,3.00
2022-09-05T10:25:12.224Z,4.00
2022-09-05T10:27:51.990Z,5.00
2022-09-05T10:32:24.584Z,6.00
2022-09-05T10:35:14.946Z,7.00
2022-09-05T10:36:18.485Z,9.50
2022-09-05T10:38:51.212Z,12.25
2022-09-05T10:41:25.183Z,7.00
2022-09-05T10:44:02.685Z,6.50
2022-09-05T10:46:50.696Z,19.75
2022-09-05T10:49:30.363Z,20.50
2022-09-05T10:52:19.379Z,17.50
2022-09-05T10:54:56.050Z,15.25
2022-09-05T10:58:13.787Z,11.00
2022-09-05T11:02:28.939Z,12.00
2022-09-05T11:03:51.964Z,10.50
2022-09-05T11:06:27.459Z,11.75
2022-09-05T11:09:06.351Z,8.75
2022-09-05T11:11:47.232Z,11.00
2022-09-05T11:14:26.519Z,10.00
2022-09-05T11:17:02.811Z,10.00
2022-09-05T11:19:44.138Z,9.25
2022-09-05T11:22:22.558Z,9.75
2022-09-05T11:25:04.320Z,7.25
2022-09-05T11:27:38.544Z,9.50
2022-09-05T11:30:30.469Z,6.75
2022-09-05T11:35:51.394Z,7.75
2022-09-05T11:39:53.633Z,10.00
2022-09-05T11:40:09.798Z,8.50
2022-09-05T11:41:53.009Z,7.50
2022-09-05T11:44:55.145Z,6.25
2022-09-05T11:47:44.397Z,7.50
2022-09-05T11:50:32.686Z,5.50
2022-09-05T11:53:11.061Z,5.25
2022-09-05T11:55:54.292Z,6.75
2022-09-05T11:58:44.809Z,5.50
2022-09-05T12:01:42.419Z,8.00
2022-09-05T12:04:36.329Z,4.50
2022-09-05T12:07:30.452Z,3.25
2022-09-05T12:10:08.108Z,4.50
2022-09-05T12:12:41.147Z,4.00
2022-09-05T12:15:18.271Z,4.00
2022-09-05T12:18:19.071Z,5.50
2022-09-05T12:20:56.338Z,4.25
2022-09-05T12:23:47.480Z,3.00
2022-09-05T12:27:44.199Z,4.00
2022-09-05T12:29:33.533Z,2.50
2022-09-05T12:33:11.395Z,7.50
2022-09-05T12:36:10.330Z,4.25
2022-09-05T12:40:06.696Z,3.25
2022-09-05T12:41:44.713Z,5.00
2022-09-05T12:44:38.930Z,5.00
2022-09-05T12:47:17.063Z,2.25
2022-09-05T12:50:02.603Z,4.75
2022-09-05T12:52:35.128Z,2.00
2022-09-05T12:55:12.198Z,3.75
2022-09-05T13:01:19.052Z,3.00
2022-09-05T13:03:04.087Z,3.75
2022-09-05T13:03:34.821Z,2.75
2022-09-05T13:06:25.062Z,2.00
2022-09-05T13:09:02.856Z,4.00
2022-09-05T13:14:48.963Z,3.00
2022-09-05T13:15:08.043Z,4.75
2022-09-05T13:17:44.235Z,4.25
2022-09-05T13:20:20.817Z,3.75
2022-09-05T13:22:52.289Z,2.00
2022-09-05T13:25:26.604Z,3.25
2022-09-05T13:28:00.390Z,5.00
2022-09-05T13:35:38.068Z,5.25
2022-09-05T13:38:00.412Z,2.00
2022-09-05T13:38:19.619Z,2.00
2022-09-05T13:40:04.648Z,3.50
2022-09-05T13:42:40.710Z,3.00
2022-09-05T13:45:20.186Z,2.25
2022-09-05T13:48:17.587Z,2.00
2022-09-05T13:50:56.422Z,3.25
2022-09-05T13:53:35.845Z,3.00
2022-09-05T13:56:24.506Z,3.00
2022-09-05T13:59:01.566Z,2.50
2022-09-05T14:01:34.568Z,2.75
2022-09-05T14:05:05.314Z,3.00
2022-09-05T14:10:23.290Z,3.00
2022-09-05T14:13:04.065Z,4.75
2022-09-05T14:15:34.079Z,2.00
2022-09-05T14:18:21.197Z,5.00
2022-09-05T14:21:18.618Z,3.50
2022-09-05T14:23:58.194Z,4.00
2022-09-05T14:26:44.495Z,4.00
2022-09-05T14:29:49.724Z,2.00
2022-09-05T14:37:37.382Z,3.75
2022-09-05T14:38:01.357Z,4.00
2022-09-05T14:38:15.820Z,4.00
2022-09-05T14:40:46.642Z,2.25
2022-09-05T14:43:27.471Z,4.00
2022-09-05T14:46:17.606Z,1.50
2022-09-05T14:48:47.385Z,3.00
2022-09-05T14:51:25.196Z,4.00
2022-09-05T14:57:23.815Z,3.25
2022-09-05T15:02:44.337Z,3.25
2022-09-05T15:02:57.340Z,2.25
2022-09-05T15:05:37.142Z,2.25
2022-09-05T15:08:20.305Z,4.25
2022-09-05T15:12:17.891Z,4.25
2022-09-05T15:14:09.608Z,4.75
2022-09-05T15:16:47.217Z,4.50
2022-09-05T15:19:37.037Z,1.50
2022-09-05T15:22:35.302Z,2.50
2022-09-05T15:25:18.591Z,5.00
2022-09-05T15:27:49.717Z,5.25
2022-09-05T15:30:37.727Z,3.00
2022-09-05T15:33:14.295Z,4.00
2022-09-05T15:35:45.560Z,2.75
2022-09-05T15:38:27.013Z,4.25
2022-09-05T15:41:03.962Z,4.00
2022-09-05T15:43:34.394Z,6.25
2022-09-05T15:46:05.206Z,3.00
2022-09-05T15:48:36.448Z,2.75
2022-09-05T15:51:13.085Z,4.25
2022-09-05T15:53:43.810Z,3.00
2022-09-05T15:56:14.623Z,4.00
2022-09-05T15:58:53.568Z,5.00
2022-09-05T16:01:52.353Z,6.50
2022-09-05T16:09:06.140Z,6.00
2022-09-05T16:10:38.257Z,6.00
2022-09-05T16:10:38.969Z,5.00
2022-09-05T16:13:18.774Z,4.75
2022-09-05T16:22:08.108Z,6.75
2022-09-05T16:23:25.663Z,2.25
2022-09-05T16:23:28.978Z,5.75
2022-09-05T16:24:59.675Z,8.00
2022-09-05T16:27:48.499Z,5.25
2022-09-05T16:30:25.894Z,5.00
2022-09-05T16:33:25.024Z,3.25
2022-09-05T16:36:04.003Z,4.00
2022-09-05T16:38:48.982Z,5.75
2022-09-05T16:41:42.835Z,7.00
2022-09-05T16:44:32.947Z,5.25
2022-09-05T16:47:08.400Z,5.50
2022-09-05T16:49:54.539Z,5.00
2022-09-05T16:52:30.529Z,6.00
2022-09-05T16:55:31.387Z,6.50
2022-09-05T16:58:14.907Z,4.25
2022-09-05T17:00:47.773Z,4.00
2022-09-05T17:03:46.278Z,4.75
2022-09-05T17:06:17.850Z,3.75
2022-09-05T17:09:12.216Z,3.50
2022-09-05T17:11:58.459Z,4.25
2022-09-05T17:14:45.367Z,5.00
2022-09-05T17:18:18.215Z,3.50
2022-09-05T17:20:18.508Z,6.75
2022-09-05T17:26:24.963Z,3.50
2022-09-05T17:29:27.748Z,1.50
2022-09-05T17:30:36.996Z,4.00
2022-09-05T17:31:59.324Z,4.50
2022-09-05T17:34:30.208Z,3.50
2022-09-05T17:37:12.692Z,5.50
2022-09-05T17:39:45.494Z,5.00
2022-09-05T17:42:37.856Z,4.25
2022-09-05T17:45:31.071Z,2.75
2022-09-05T17:48:05.283Z,4.75
2022-09-05T17:50:35.330Z,3.00
2022-09-05T17:53:25.747Z,4.00
2022-09-05T17:55:57.163Z,5.50
2022-09-05T17:58:48.820Z,5.50
2022-09-05T18:01:18.540Z,5.00
2022-09-05T18:03:48.282Z,3.50
2022-09-05T18:06:18.131Z,5.00
2022-09-05T18:08:47.884Z,3.00
2022-09-05T18:11:29.786Z,5.25
2022-09-05T18:14:04.242Z,4.50
2022-09-05T18:16:42.098Z,5.50
2022-09-05T18:19:38.151Z,4.50
2022-09-05T18:22:21.400Z,4.25
2022-09-05T18:24:55.258Z,5.00
2022-09-05T18:28:04.509Z,4.00
2022-09-05T18:30:37.027Z,5.25
2022-09-05T18:33:54.312Z,2.50
2022-09-05T18:36:02.110Z,5.25
2022-09-05T18:38:50.117Z,5.50
2022-09-05T18:41:28.886Z,4.00
2022-09-05T18:44:20.347Z,5.00
2022-09-05T18:46:52.432Z,3.75
2022-09-05T18:50:24.156Z,4.00
2022-09-05T18:52:31.353Z,4.25
2022-09-05T18:56:08.866Z,5.00
2022-09-05T18:58:15.993Z,4.00
2022-09-05T19:00:49.725Z,5.25
2022-09-05T19:03:33.364Z,6.00
2022-09-05T19:06:35.112Z,4.00
2022-09-05T19:09:06.986Z,5.50
2022-09-05T19:11:56.866Z,6.50
2022-09-05T19:14:49.992Z,5.25
2022-09-05T19:17:28.268Z,4.75
2022-09-05T19:20:31.574Z,5.50
2022-09-05T19:23:10.096Z,5.25
2022-09-05T19:25:48.259Z,6.25
2022-09-05T19:36:15.729Z,4.00
2022-09-05T19:36:53.601Z,5.50
2022-09-05T19:37:03.297Z,4.75
2022-09-05T19:37:24.452Z,3.00
2022-09-05T19:45:00.638Z,5.00
2022-09-05T19:47:35.037Z,4.00
2022-09-05T19:47:52.050Z,3.75
2022-09-05T19:50:59.284Z,4.50
2022-09-05T19:53:29.093Z,5.25
2022-09-05T19:55:58.514Z,3.00
2022-09-05T19:58:28.137Z,4.00
2022-09-05T20:01:06.005Z,4.75
2022-09-05T20:03:41.611Z,6.00
2022-09-05T20:06:31.124Z,5.00
2022-09-05T20:09:11.460Z,5.00
2022-09-05T20:11:45.970Z,7.50
2022-09-05T20:14:20.147Z,3.75
2022-09-05T20:16:51.177Z,4.00
2022-09-05T20:19:25.566Z,4.00
2022-09-05T20:22:46.833Z,5.25
2022-09-05T20:25:00.881Z,5.00
2022-09-05T20:27:31.833Z,7.00
2022-09-05T20:30:07.292Z,5.00
2022-09-05T20:32:45.488Z,3.00
2022-09-05T20:37:50.287Z,4.00
2022-09-05T20:43:30.012Z,2.75
2022-09-05T20:43:31.860Z,3.25
2022-09-05T20:44:30.834Z,6.50
2022-09-05T20:54:07.287Z,7.50
2022-09-05T20:54:12.674Z,3.25
2022-09-05T20:54:21.530Z,4.25
2022-09-05T20:55:46.340Z,2.75
2022-09-05T20:58:24.640Z,6.50
2022-09-05T21:01:21.333Z,4.75
2022-09-05T21:04:10.291Z,4.25
2022-09-05T21:06:43.131Z,5.00
2022-09-05T21:09:24.946Z,5.25
2022-09-05T21:12:01.535Z,5.25
2022-09-05T21:14:31.108Z,5.50
2022-09-05T21:17:13.422Z,4.00
2022-09-05T21:19:54.159Z,4.25
2022-09-05T21:22:26.856Z,5.00
2022-09-05T21:25:14.925Z,3.00
2022-09-05T21:27:56.657Z,4.00
2022-09-05T21:30:31.311Z,5.25
2022-09-05T21:33:18.356Z,6.75
2022-09-05T21:35:49.481Z,6.75
2022-09-05T21:38:32.226Z,6.00
2022-09-05T21:41:03.605Z,4.50
2022-09-05T21:47:34.513Z,5.00
2022-09-05T21:47:47.667Z,7.50
2022-09-05T21:49:15.094Z,5.00
2022-09-05T21:51:48.095Z,6.25
2022-09-05T21:59:17.963Z,8.00
2022-09-05T21:59:26.993Z,7.75
2022-09-05T22:00:11.311Z,4.50
2022-09-05T22:02:50.394Z,2.75
2022-09-05T22:05:21.445Z,4.50
2022-09-05T22:07:54.696Z,8.00
2022-09-05T22:10:45.358Z,7.50
2022-09-05T22:13:14.537Z,7.50
2022-09-05T22:15:45.475Z,7.50
2022-09-05T22:18:17.740Z,7.25
2022-09-05T22:20:53.520Z,8.00
2022-09-05T22:23:41.444Z,6.25
2022-09-05T22:26:11.273Z,5.75
2022-09-05T22:28:50.090Z,6.50
2022-09-05T22:31:20.831Z,6.50
2022-09-05T22:33:51.466Z,6.00
2022-09-05T22:36:21.412Z,5.75
2022-09-05T22:38:51.013Z,4.25
2022-09-05T22:41:29.968Z,7.00
2022-09-05T22:44:01.104Z,6.00
2022-09-05T22:46:31.572Z,6.00
2022-09-05T22:49:00.926Z,6.50
2022-09-05T22:51:30.246Z,5.00
2022-09-05T22:54:00.071Z,4.75
2022-09-05T22:56:34.118Z,4.00
2022-09-05T22:59:05.541Z,3.75
2022-09-05T23:01:35.430Z,5.00
2022-09-05T23:04:05.174Z,2.25
2022-09-05T23:06:34.978Z,3.75
2022-09-05T23:09:04.353Z,4.00
2022-09-05T23:11:34.098Z,5.00
2022-09-05T23:14:03.451Z,5.50
2022-09-05T23:16:32.794Z,3.75
2022-09-05T23:19:02.718Z,3.75
2022-09-05T23:21:32.052Z,7.25
2022-09-05T23:24:01.331Z,6.50
2022-09-05T23:26:31.031Z,4.50
2022-09-05T23:29:00.337Z,6.50
2022-09-05T23:31:29.861Z,6.25
2022-09-05T23:33:59.630Z,5.75
2022-09-05T23:36:29.123Z,6.50
2022-09-05T23:39:00.387Z,5.25
2022-09-05T23:41:30.532Z,7.00
2022-09-05T23:44:00.149Z,3.50
2022-09-05T23:46:29.487Z,7.50
2022-09-05T23:48:59.249Z,9.00
2022-09-05T23:51:28.943Z,8.50
2022-09-05T23:53:58.484Z,7.75
2022-09-05T23:56:28.166Z,7.00
2022-09-05T23:59:03.682Z,6.50
